Portada
METAR-TAF:

METAR-TAF

Aeropuertos :

San Sebastián, España

Aeropuerto de San Sebastián

latitud: 43-21N, longitud: 001-48W, altitud: 5 m

Observación

El informe se hizo hace 23 minutos, a las 11:00 UTC
Viento 4 kt del sur-suroeste, variando entre sur y oeste-suroeste
Temperatura 21°C
Humedad 40%
Presión 1013 hPa
Visibilidad 10 km o más
sin nubes por debajo de 1500 m y sin presencia de cumulonimbus.

METAR: LESO 231100Z 20004KT 180V250 CAVOK 21/07 Q1013

Hora: 12:23 (11:23 UTC)

Pronóstico

El informe se hizo hace 6 horas y 23 minutos, a las 05:00 UTC
Pronóstico válido del 23 a las 06 UTC al 24 a las 06 UTC
Viento 9 kt del sur-suroeste
Visibilidad 10 km o más
sin nubes por debajo de 1500 m y sin presencia de cumulonimbus.
Temporalmente
del 23 a las 06 UTC al 23 a las 15 UTC
Viento 15 kt del sur-suroeste con ráfagas de 30 kt

TAF: LESO 230500Z 2306/2406 20009KT CAVOK TX23/2314Z TN13/2406Z TEMPO 2306/2315 20015G30KT

Observaciones y pronósticos meteorológicos de más de 4000 aeropuertos (mensajes METAR y TAF).

Los puntos amarillos y rojos representan las estaciones disponibles.

Ponga el ratón en el punto deseado para ver el nombre de la estación.

Haga clic para ver las observaciones y los pronósticos meteorológicos.

Para cambiar el mapa : haga clic en los botones verdes con una cruz de color negro para hacer un zoom, en el botón verde con un guión para alejar o en las flechas verdes para mapas adyacentes.


METAR-TAF: